Weather at La Araucanía Airport

Public forecast

Using degrees Celsius for public forecast. Weather courtesy of forecast.io.

Current aviation weather report (METAR) for La Araucanía Airport

Retrieved 2020/10/23 07:00 UTC (30 minutes ago):

SCQP 230700Z AUTO VRB02KT 6000 BCFG SCT014 04/04 Q1017

Aviation forecast (TAF) for La Araucanía Airport

Retrieved 2020/10/23 06:00 UTC (1 hour ago):

TAF SCQP 230405Z 2306/2406 VRB02KT 5000 BR FEW010 TN06/2306Z TX19/2318Z TEMPO 2309/2312 0500 FG OVC002 BECMG 2313/2315 19004KT 9999 NSW SCT010 BECMG 2315/2317 24010KT CAVOK BECMG 2401/2403 VRB03KT